sensor_id;sensor_type;location;lat;lon;timestamp;pressure;altitude;pressure_sealevel;temperature;humidity
48390;BME280;34643;47.964;7.982;2022-12-28T00:01:54;97528.66;;;14.03;63.94
48390;BME280;34643;47.964;7.982;2022-12-28T00:06:55;97525.22;;;14.03;64.07
48390;BME280;34643;47.964;7.982;2022-12-28T00:11:56;97513.09;;;14.03;64.35
48390;BME280;34643;47.964;7.982;2022-12-28T00:16:56;97503.59;;;14.02;64.24
48390;BME280;34643;47.964;7.982;2022-12-28T00:21:56;97503.69;;;14.01;64.23
48390;BME280;34643;47.964;7.982;2022-12-28T00:26:56;97513.16;;;14.02;64.03
48390;BME280;34643;47.964;7.982;2022-12-28T00:31:57;97518.41;;;14.00;63.98
48390;BME280;34643;47.964;7.982;2022-12-28T00:36:57;97508.09;;;13.99;64.14
48390;BME280;34643;47.964;7.982;2022-12-28T00:41:57;97497.72;;;13.99;64.10
48390;BME280;34643;47.964;7.982;2022-12-28T00:46:58;97496.03;;;13.98;64.04
48390;BME280;34643;47.964;7.982;2022-12-28T00:51:58;97486.59;;;13.97;64.14
48390;BME280;34643;47.964;7.982;2022-12-28T00:56:58;97494.44;;;13.95;64.18
48390;BME280;34643;47.964;7.982;2022-12-28T01:01:58;97477.25;;;13.93;64.23
48390;BME280;34643;47.964;7.982;2022-12-28T01:06:59;97470.41;;;13.92;64.23
48390;BME280;34643;47.964;7.982;2022-12-28T01:11:59;97474.75;;;13.91;63.85
48390;BME280;34643;47.964;7.982;2022-12-28T01:16:59;97473.91;;;13.91;64.02
48390;BME280;34643;47.964;7.982;2022-12-28T01:22:00;97482.28;;;13.96;63.92
48390;BME280;34643;47.964;7.982;2022-12-28T01:27:00;97467.66;;;13.95;64.16
48390;BME280;34643;47.964;7.982;2022-12-28T01:32:00;97451.16;;;13.96;64.28
48390;BME280;34643;47.964;7.982;2022-12-28T01:37:02;97432.06;;;13.97;63.87
48390;BME280;34643;47.964;7.982;2022-12-28T01:42:03;97432.22;;;13.94;64.21
48390;BME280;34643;47.964;7.982;2022-12-28T01:47:04;97438.25;;;13.94;63.87
48390;BME280;34643;47.964;7.982;2022-12-28T01:57:41;97447.03;;;13.92;64.24
48390;BME280;34643;47.964;7.982;2022-12-28T02:02:45;97434.06;;;13.92;63.98
48390;BME280;34643;47.964;7.982;2022-12-28T02:12:51;97425.59;;;13.88;64.27
48390;BME280;34643;47.964;7.982;2022-12-28T02:17:53;97427.34;;;13.87;64.06
48390;BME280;34643;47.964;7.982;2022-12-28T02:33:08;97405.03;;;13.83;64.26
48390;BME280;34643;47.964;7.982;2022-12-28T02:38:15;97383.47;;;13.83;64.32
48390;BME280;34643;47.964;7.982;2022-12-28T02:43:18;97379.16;;;13.82;64.33
48390;BME280;34643;47.964;7.982;2022-12-28T02:48:18;97378.28;;;13.83;64.27
48390;BME280;34643;47.964;7.982;2022-12-28T02:58:52;97335.25;;;13.79;64.27
48390;BME280;34643;47.964;7.982;2022-12-28T03:14:29;97344.75;;;13.78;63.84
48390;BME280;34643;47.964;7.982;2022-12-28T03:19:36;97340.56;;;13.76;64.17
48390;BME280;34643;47.964;7.982;2022-12-28T03:24:58;97337.97;;;13.76;64.51
48390;BME280;34643;47.964;7.982;2022-12-28T03:30:18;97329.38;;;13.75;64.04
48390;BME280;34643;47.964;7.982;2022-12-28T03:35:47;97325.00;;;13.76;63.83
48390;BME280;34643;47.964;7.982;2022-12-28T03:40:50;97316.47;;;13.74;64.05
48390;BME280;34643;47.964;7.982;2022-12-28T03:45:56;97306.91;;;13.74;64.04
48390;BME280;34643;47.964;7.982;2022-12-28T03:51:01;97298.38;;;13.72;64.37
48390;BME280;34643;47.964;7.982;2022-12-28T03:56:09;97298.38;;;13.72;64.11
48390;BME280;34643;47.964;7.982;2022-12-28T04:01:11;97294.09;;;13.71;64.13
48390;BME280;34643;47.964;7.982;2022-12-28T04:06:13;97282.06;;;13.70;64.03
48390;BME280;34643;47.964;7.982;2022-12-28T04:11:15;97288.97;;;13.69;63.98
48390;BME280;34643;47.964;7.982;2022-12-28T04:16:21;97277.78;;;13.69;64.06
48390;BME280;34643;47.964;7.982;2022-12-28T04:21:22;97283.91;;;13.68;64.30
48390;BME280;34643;47.964;7.982;2022-12-28T04:26:22;97287.56;;;13.64;64.06
48390;BME280;34643;47.964;7.982;2022-12-28T04:31:26;97278.78;;;13.66;64.04
48390;BME280;34643;47.964;7.982;2022-12-28T04:36:32;97288.31;;;13.66;64.18
48390;BME280;34643;47.964;7.982;2022-12-28T04:41:34;97281.31;;;13.68;63.81
48390;BME280;34643;47.964;7.982;2022-12-28T04:46:34;97290.81;;;13.67;64.22
48390;BME280;34643;47.964;7.982;2022-12-28T04:51:34;97282.22;;;13.67;64.26
48390;BME280;34643;47.964;7.982;2022-12-28T04:56:35;97271.91;;;13.65;64.27
48390;BME280;34643;47.964;7.982;2022-12-28T05:01:36;97269.31;;;13.65;64.29
48390;BME280;34643;47.964;7.982;2022-12-28T05:06:37;97267.66;;;13.64;63.98
48390;BME280;34643;47.964;7.982;2022-12-28T05:11:37;97279.75;;;13.64;64.20
48390;BME280;34643;47.964;7.982;2022-12-28T05:16:37;97273.91;;;13.60;64.05
48390;BME280;34643;47.964;7.982;2022-12-28T05:21:38;97285.97;;;13.61;64.35
48390;BME280;34643;47.964;7.982;2022-12-28T05:26:38;97281.75;;;13.59;63.76
48390;BME280;34643;47.964;7.982;2022-12-28T05:31:38;97280.03;;;13.59;64.32
48390;BME280;34643;47.964;7.982;2022-12-28T05:36:39;97282.69;;;13.58;64.11
48390;BME280;34643;47.964;7.982;2022-12-28T05:41:39;97279.16;;;13.59;64.20
48390;BME280;34643;47.964;7.982;2022-12-28T05:46:39;97276.63;;;13.57;64.11
48390;BME280;34643;47.964;7.982;2022-12-28T05:51:39;97273.22;;;13.57;64.45
48390;BME280;34643;47.964;7.982;2022-12-28T05:56:40;97260.41;;;13.54;64.48
48390;BME280;34643;47.964;7.982;2022-12-28T06:01:41;97260.31;;;13.55;64.27
48390;BME280;34643;47.964;7.982;2022-12-28T06:06:42;97257.81;;;13.54;64.01
48390;BME280;34643;47.964;7.982;2022-12-28T06:11:42;97257.03;;;13.52;64.43
48390;BME280;34643;47.964;7.982;2022-12-28T06:16:43;97245.84;;;13.51;64.23
48390;BME280;34643;47.964;7.982;2022-12-28T06:21:43;97240.66;;;13.51;64.24
48390;BME280;34643;47.964;7.982;2022-12-28T06:26:44;97237.38;;;13.47;64.37
48390;BME280;34643;47.964;7.982;2022-12-28T06:31:44;97208.78;;;13.49;64.21
48390;BME280;34643;47.964;7.982;2022-12-28T06:36:50;97208.84;;;13.47;64.33
48390;BME280;34643;47.964;7.982;2022-12-28T06:41:51;97207.16;;;13.46;64.28
48390;BME280;34643;47.964;7.982;2022-12-28T06:46:52;97214.03;;;13.47;64.48
48390;BME280;34643;47.964;7.982;2022-12-28T06:51:52;97220.13;;;13.46;64.29
48390;BME280;34643;47.964;7.982;2022-12-28T06:56:52;97223.59;;;13.47;64.22
48390;BME280;34643;47.964;7.982;2022-12-28T07:01:52;97226.84;;;13.50;64.53
48390;BME280;34643;47.964;7.982;2022-12-28T07:06:53;97224.19;;;13.52;64.47
48390;BME280;34643;47.964;7.982;2022-12-28T07:11:53;97212.97;;;13.52;64.47
48390;BME280;34643;47.964;7.982;2022-12-28T07:16:54;97208.72;;;13.50;64.40
48390;BME280;34643;47.964;7.982;2022-12-28T07:21:55;97202.59;;;13.52;64.27
48390;BME280;34643;47.964;7.982;2022-12-28T07:26:55;97193.97;;;13.51;64.52
48390;BME280;34643;47.964;7.982;2022-12-28T07:31:55;97199.09;;;13.53;64.27
48390;BME280;34643;47.964;7.982;2022-12-28T07:36:55;97192.28;;;13.50;64.50
48390;BME280;34643;47.964;7.982;2022-12-28T07:41:56;97187.22;;;13.48;64.39
48390;BME280;34643;47.964;7.982;2022-12-28T07:46:56;97188.94;;;13.48;64.55
48390;BME280;34643;47.964;7.982;2022-12-28T07:51:56;97186.34;;;13.48;64.68
48390;BME280;34643;47.964;7.982;2022-12-28T07:56:57;97183.81;;;13.46;64.33
48390;BME280;34643;47.964;7.982;2022-12-28T08:01:57;97189.88;;;13.47;63.97
48390;BME280;34643;47.964;7.982;2022-12-28T08:06:57;97196.72;;;13.48;64.23
48390;BME280;34643;47.964;7.982;2022-12-28T08:11:57;97194.19;;;13.46;64.54
48390;BME280;34643;47.964;7.982;2022-12-28T08:16:58;97181.34;;;13.45;64.32
48390;BME280;34643;47.964;7.982;2022-12-28T08:21:59;97173.63;;;13.43;64.29
48390;BME280;34643;47.964;7.982;2022-12-28T08:27:02;97177.97;;;13.43;64.53
48390;BME280;34643;47.964;7.982;2022-12-28T08:32:02;97169.28;;;13.44;64.36
48390;BME280;34643;47.964;7.982;2022-12-28T08:37:03;97176.31;;;13.42;64.31
48390;BME280;34643;47.964;7.982;2022-12-28T08:42:03;97170.19;;;13.43;64.46
48390;BME280;34643;47.964;7.982;2022-12-28T08:47:03;97166.75;;;13.42;64.60
48390;BME280;34643;47.964;7.982;2022-12-28T08:52:03;97159.91;;;13.41;64.83
48390;BME280;34643;47.964;7.982;2022-12-28T08:57:04;97157.31;;;13.41;64.60
48390;BME280;34643;47.964;7.982;2022-12-28T09:02:05;97143.50;;;13.41;64.44
48390;BME280;34643;47.964;7.982;2022-12-28T09:07:05;97136.59;;;13.41;64.43
48390;BME280;34643;47.964;7.982;2022-12-28T09:12:05;97131.41;;;13.41;64.68
48390;BME280;34643;47.964;7.982;2022-12-28T09:17:09;97138.31;;;13.41;64.30
48390;BME280;34643;47.964;7.982;2022-12-28T09:22:09;97139.19;;;13.41;64.94
48390;BME280;34643;47.964;7.982;2022-12-28T09:27:09;97137.50;;;13.40;64.68
48390;BME280;34643;47.964;7.982;2022-12-28T09:32:09;97131.47;;;13.40;64.75
48390;BME280;34643;47.964;7.982;2022-12-28T09:37:10;97127.13;;;13.40;64.72
48390;BME280;34643;47.964;7.982;2022-12-28T09:47:22;97111.56;;;13.40;64.59
48390;BME280;34643;47.964;7.982;2022-12-28T09:57:29;97115.84;;;13.41;64.54
48390;BME280;34643;47.964;7.982;2022-12-28T10:02:32;97118.91;;;13.48;64.44
48390;BME280;34643;47.964;7.982;2022-12-28T10:07:33;97104.09;;;13.50;64.19
48390;BME280;34643;47.964;7.982;2022-12-28T10:12:35;97077.28;;;13.51;64.31
48390;BME280;34643;47.964;7.982;2022-12-28T10:17:35;97094.53;;;13.52;64.08
48390;BME280;34643;47.964;7.982;2022-12-28T10:22:36;97093.66;;;13.52;64.31
48390;BME280;34643;47.964;7.982;2022-12-28T10:27:37;97089.34;;;13.52;63.95
48390;BME280;34643;47.964;7.982;2022-12-28T10:32:51;97077.94;;;13.55;64.39
48390;BME280;34643;47.964;7.982;2022-12-28T10:37:53;97078.78;;;13.55;64.03
48390;BME280;34643;47.964;7.982;2022-12-28T10:42:57;97069.34;;;13.54;64.35
48390;BME280;34643;47.964;7.982;2022-12-28T10:47:58;97061.38;;;13.57;64.20
48390;BME280;34643;47.964;7.982;2022-12-28T10:52:58;97054.44;;;13.58;64.19
48390;BME280;34643;47.964;7.982;2022-12-28T11:03:17;97048.50;;;13.56;64.27
48390;BME280;34643;47.964;7.982;2022-12-28T11:08:18;97038.13;;;13.56;64.37
48390;BME280;34643;47.964;7.982;2022-12-28T11:13:18;97032.16;;;13.54;64.39
48390;BME280;34643;47.964;7.982;2022-12-28T11:18:19;97014.94;;;13.53;64.23
48390;BME280;34643;47.964;7.982;2022-12-28T11:23:21;97011.53;;;13.52;64.42
48390;BME280;34643;47.964;7.982;2022-12-28T11:28:22;97000.22;;;13.53;64.15
48390;BME280;34643;47.964;7.982;2022-12-28T11:38:39;97001.16;;;13.52;64.48
48390;BME280;34643;47.964;7.982;2022-12-28T11:43:47;96990.00;;;13.50;64.31
48390;BME280;34643;47.964;7.982;2022-12-28T11:49:01;96984.81;;;13.50;64.29
48390;BME280;34643;47.964;7.982;2022-12-28T11:59:04;96981.41;;;13.49;64.66
48390;BME280;34643;47.964;7.982;2022-12-28T12:04:06;96971.03;;;13.49;64.42
48390;BME280;34643;47.964;7.982;2022-12-28T12:19:32;96935.53;;;13.50;64.71
48390;BME280;34643;47.964;7.982;2022-12-28T12:24:34;96922.69;;;13.48;64.36
48390;BME280;34643;47.964;7.982;2022-12-28T12:29:48;96919.16;;;13.49;64.34
48390;BME280;34643;47.964;7.982;2022-12-28T12:34:54;96904.53;;;13.48;64.72
48390;BME280;34643;47.964;7.982;2022-12-28T12:45:02;96897.66;;;13.47;64.79
48390;BME280;34643;47.964;7.982;2022-12-28T12:50:22;96901.94;;;13.48;64.40
48390;BME280;34643;47.964;7.982;2022-12-28T13:00:29;96869.63;;;13.54;64.77
48390;BME280;34643;47.964;7.982;2022-12-28T13:05:31;96859.84;;;13.59;64.61
48390;BME280;34643;47.964;7.982;2022-12-28T13:10:33;96840.81;;;13.59;64.84
48390;BME280;34643;47.964;7.982;2022-12-28T13:15:34;96837.25;;;13.61;64.37
48390;BME280;34643;47.964;7.982;2022-12-28T13:20:35;96845.84;;;13.62;64.87
48390;BME280;34643;47.964;7.982;2022-12-28T13:25:35;96838.06;;;13.62;64.73
48390;BME280;34643;47.964;7.982;2022-12-28T13:30:35;96829.53;;;13.60;64.83
48390;BME280;34643;47.964;7.982;2022-12-28T13:35:37;96826.22;;;13.58;64.87
48390;BME280;34643;47.964;7.982;2022-12-28T13:40:37;96814.06;;;13.58;64.78
48390;BME280;34643;47.964;7.982;2022-12-28T13:45:38;96808.78;;;13.60;64.57
48390;BME280;34643;47.964;7.982;2022-12-28T13:50:39;96816.66;;;13.58;64.57
48390;BME280;34643;47.964;7.982;2022-12-28T13:55:42;96808.78;;;13.60;64.73
48390;BME280;34643;47.964;7.982;2022-12-28T14:00:43;96798.59;;;13.57;64.46
48390;BME280;34643;47.964;7.982;2022-12-28T14:05:46;96787.41;;;13.56;64.61
48390;BME280;34643;47.964;7.982;2022-12-28T14:10:46;96794.22;;;13.57;64.82
48390;BME280;34643;47.964;7.982;2022-12-28T14:15:47;96788.31;;;13.55;64.53
48390;BME280;34643;47.964;7.982;2022-12-28T14:20:48;96782.38;;;13.53;64.94
48390;BME280;34643;47.964;7.982;2022-12-28T14:25:49;96778.03;;;13.54;64.65
48390;BME280;34643;47.964;7.982;2022-12-28T14:30:51;96773.78;;;13.53;64.84
48390;BME280;34643;47.964;7.982;2022-12-28T14:35:54;96777.28;;;13.52;64.64
48390;BME280;34643;47.964;7.982;2022-12-28T14:40:57;96773.84;;;13.51;64.83
48390;BME280;34643;47.964;7.982;2022-12-28T14:45:57;96772.09;;;13.52;64.55
48390;BME280;34643;47.964;7.982;2022-12-28T14:56:16;96767.09;;;13.48;64.94
48390;BME280;34643;47.964;7.982;2022-12-28T15:01:18;96757.72;;;13.46;64.79
48390;BME280;34643;47.964;7.982;2022-12-28T15:06:20;96757.00;;;13.44;64.91
48390;BME280;34643;47.964;7.982;2022-12-28T15:11:21;96748.38;;;13.43;64.92
48390;BME280;34643;47.964;7.982;2022-12-28T15:16:22;96735.50;;;13.42;64.71
48390;BME280;34643;47.964;7.982;2022-12-28T15:21:22;96736.41;;;13.41;65.10
48390;BME280;34643;47.964;7.982;2022-12-28T15:26:23;96727.00;;;13.40;64.85
48390;BME280;34643;47.964;7.982;2022-12-28T15:31:23;96720.13;;;13.39;65.06
48390;BME280;34643;47.964;7.982;2022-12-28T15:36:24;96727.16;;;13.37;64.96
48390;BME280;34643;47.964;7.982;2022-12-28T15:41:24;96716.78;;;13.37;64.72
48390;BME280;34643;47.964;7.982;2022-12-28T15:46:43;96719.47;;;13.35;65.16
48390;BME280;34643;47.964;7.982;2022-12-28T15:51:44;96716.97;;;13.34;65.20
48390;BME280;34643;47.964;7.982;2022-12-28T15:56:50;96716.16;;;13.33;65.02
48390;BME280;34643;47.964;7.982;2022-12-28T16:01:50;96706.84;;;13.29;65.18
48390;BME280;34643;47.964;7.982;2022-12-28T16:06:51;96706.84;;;13.29;64.84
48390;BME280;34643;47.964;7.982;2022-12-28T16:11:51;96692.22;;;13.28;65.17
48390;BME280;34643;47.964;7.982;2022-12-28T16:16:52;96695.72;;;13.27;65.06
48390;BME280;34643;47.964;7.982;2022-12-28T16:21:52;96687.94;;;13.27;64.99
48390;BME280;34643;47.964;7.982;2022-12-28T16:26:52;96684.34;;;13.29;65.02
48390;BME280;34643;47.964;7.982;2022-12-28T16:31:52;96679.03;;;13.33;64.72
48390;BME280;34643;47.964;7.982;2022-12-28T16:36:54;96673.72;;;13.34;65.04
48390;BME280;34643;47.964;7.982;2022-12-28T16:41:57;96667.63;;;13.35;64.65
48390;BME280;34643;47.964;7.982;2022-12-28T16:46:57;96661.63;;;13.35;64.69
48390;BME280;34643;47.964;7.982;2022-12-28T16:51:58;96654.75;;;13.34;64.47
48390;BME280;34643;47.964;7.982;2022-12-28T16:57:00;96653.09;;;13.33;64.59
48390;BME280;34643;47.964;7.982;2022-12-28T17:02:03;96653.94;;;13.33;64.91
48390;BME280;34643;47.964;7.982;2022-12-28T17:07:04;96643.66;;;13.31;64.62
48390;BME280;34643;47.964;7.982;2022-12-28T17:12:04;96647.06;;;13.32;64.88
48390;BME280;34643;47.964;7.982;2022-12-28T17:17:05;96630.69;;;13.31;64.96
48390;BME280;34643;47.964;7.982;2022-12-28T17:22:05;96634.28;;;13.29;64.74
48390;BME280;34643;47.964;7.982;2022-12-28T17:27:05;96627.31;;;13.29;64.83
48390;BME280;34643;47.964;7.982;2022-12-28T17:32:06;96623.91;;;13.29;64.75
48390;BME280;34643;47.964;7.982;2022-12-28T17:37:06;96621.31;;;13.29;65.07
48390;BME280;34643;47.964;7.982;2022-12-28T17:42:07;96609.28;;;13.28;64.72
48390;BME280;34643;47.964;7.982;2022-12-28T17:47:08;96607.50;;;13.28;64.97
48390;BME280;34643;47.964;7.982;2022-12-28T17:52:08;96597.22;;;13.27;64.70
48390;BME280;34643;47.964;7.982;2022-12-28T17:57:08;96612.78;;;13.27;65.15
48390;BME280;34643;47.964;7.982;2022-12-28T18:02:09;96607.59;;;13.27;65.08
48390;BME280;34643;47.964;7.982;2022-12-28T18:07:11;96605.13;;;13.25;64.88
48390;BME280;34643;47.964;7.982;2022-12-28T18:12:11;96593.88;;;13.25;64.80
48390;BME280;34643;47.964;7.982;2022-12-28T18:17:12;96603.44;;;13.24;64.84
48390;BME280;34643;47.964;7.982;2022-12-28T18:22:15;96609.53;;;13.23;65.06
48390;BME280;34643;47.964;7.982;2022-12-28T18:27:15;96590.56;;;13.23;64.66
48390;BME280;34643;47.964;7.982;2022-12-28T18:32:16;96594.94;;;13.22;65.06
48390;BME280;34643;47.964;7.982;2022-12-28T18:37:16;96587.97;;;13.23;65.17
48390;BME280;34643;47.964;7.982;2022-12-28T18:42:16;96585.38;;;13.23;65.15
48390;BME280;34643;47.964;7.982;2022-12-28T18:47:20;96581.13;;;13.22;64.72
48390;BME280;34643;47.964;7.982;2022-12-28T18:52:20;96566.50;;;13.21;64.84
48390;BME280;34643;47.964;7.982;2022-12-28T18:57:20;96566.50;;;13.21;65.26
48390;BME280;34643;47.964;7.982;2022-12-28T19:02:20;96556.97;;;13.21;64.81
48390;BME280;34643;47.964;7.982;2022-12-28T19:07:21;96552.50;;;13.23;64.78
48390;BME280;34643;47.964;7.982;2022-12-28T19:12:21;96549.75;;;13.26;64.66
48390;BME280;34643;47.964;7.982;2022-12-28T19:17:21;96546.22;;;13.27;65.05
48390;BME280;34643;47.964;7.982;2022-12-28T19:22:22;96541.88;;;13.28;64.86
48390;BME280;34643;47.964;7.982;2022-12-28T19:27:22;96545.28;;;13.28;64.55
48390;BME280;34643;47.964;7.982;2022-12-28T19:32:22;96553.06;;;13.28;64.67
48390;BME280;34643;47.964;7.982;2022-12-28T19:37:23;96541.88;;;13.28;64.75
48390;BME280;34643;47.964;7.982;2022-12-28T19:42:24;96546.97;;;13.29;65.08
48390;BME280;34643;47.964;7.982;2022-12-28T19:47:24;96535.78;;;13.29;65.08
48390;BME280;34643;47.964;7.982;2022-12-28T19:52:24;96541.78;;;13.29;65.02
48390;BME280;34643;47.964;7.982;2022-12-28T19:57:25;96535.78;;;13.29;64.62
48390;BME280;34643;47.964;7.982;2022-12-28T20:02:25;96538.38;;;13.29;64.72
48390;BME280;34643;47.964;7.982;2022-12-28T20:07:25;96529.72;;;13.28;64.88
48390;BME280;34643;47.964;7.982;2022-12-28T20:12:25;96513.34;;;13.28;64.92
48390;BME280;34643;47.964;7.982;2022-12-28T20:17:26;96515.13;;;13.27;64.84
48390;BME280;34643;47.964;7.982;2022-12-28T20:22:27;96519.47;;;13.27;64.69
48390;BME280;34643;47.964;7.982;2022-12-28T20:27:27;96509.00;;;13.28;64.73
48390;BME280;34643;47.964;7.982;2022-12-28T20:32:29;96510.75;;;13.28;64.69
48390;BME280;34643;47.964;7.982;2022-12-28T20:37:29;96496.13;;;13.27;64.69
48390;BME280;34643;47.964;7.982;2022-12-28T20:42:30;96495.22;;;13.28;64.55
48390;BME280;34643;47.964;7.982;2022-12-28T20:47:49;96499.56;;;13.27;64.94
48390;BME280;34643;47.964;7.982;2022-12-28T20:52:52;96497.06;;;13.26;64.71
48390;BME280;34643;47.964;7.982;2022-12-28T20:57:53;96499.66;;;13.26;64.73
48390;BME280;34643;47.964;7.982;2022-12-28T21:02:53;96498.00;;;13.25;64.95
48390;BME280;34643;47.964;7.982;2022-12-28T21:07:53;96500.59;;;13.25;64.92
48390;BME280;34643;47.964;7.982;2022-12-28T21:12:54;96485.97;;;13.24;64.52
48390;BME280;34643;47.964;7.982;2022-12-28T21:17:54;96489.38;;;13.24;65.10
48390;BME280;34643;47.964;7.982;2022-12-28T21:22:57;96488.56;;;13.24;64.83
48390;BME280;34643;47.964;7.982;2022-12-28T21:27:58;96484.22;;;13.24;64.69
48390;BME280;34643;47.964;7.982;2022-12-28T21:32:58;96482.53;;;13.23;65.01
48390;BME280;34643;47.964;7.982;2022-12-28T21:37:59;96473.84;;;13.24;65.04
48390;BME280;34643;47.964;7.982;2022-12-28T21:42:59;96466.16;;;13.23;64.81
48390;BME280;34643;47.964;7.982;2022-12-28T21:47:59;96465.25;;;13.24;65.19
48390;BME280;34643;47.964;7.982;2022-12-28T21:53:00;96455.78;;;13.23;64.93
48390;BME280;34643;47.964;7.982;2022-12-28T21:58:01;96468.75;;;13.23;65.02
48390;BME280;34643;47.964;7.982;2022-12-28T22:03:01;96467.09;;;13.22;64.72
48390;BME280;34643;47.964;7.982;2022-12-28T22:08:20;96469.69;;;13.22;65.04
48390;BME280;34643;47.964;7.982;2022-12-28T22:13:39;96468.84;;;13.21;64.66
48390;BME280;34643;47.964;7.982;2022-12-28T22:18:41;96456.59;;;13.23;65.06
48390;BME280;34643;47.964;7.982;2022-12-28T22:23:41;96453.94;;;13.25;64.92
48390;BME280;34643;47.964;7.982;2022-12-28T22:28:41;96448.75;;;13.25;64.88
48390;BME280;34643;47.964;7.982;2022-12-28T22:33:42;96453.00;;;13.26;64.84
48390;BME280;34643;47.964;7.982;2022-12-28T22:38:42;96451.34;;;13.25;64.93
48390;BME280;34643;47.964;7.982;2022-12-28T22:43:42;96435.78;;;13.25;64.78
48390;BME280;34643;47.964;7.982;2022-12-28T22:48:43;96436.50;;;13.27;64.92
48390;BME280;34643;47.964;7.982;2022-12-28T22:53:43;96429.69;;;13.26;64.60
48390;BME280;34643;47.964;7.982;2022-12-28T22:58:44;96420.13;;;13.26;64.73
48390;BME280;34643;47.964;7.982;2022-12-28T23:03:45;96423.69;;;13.25;64.92
48390;BME280;34643;47.964;7.982;2022-12-28T23:08:46;96407.28;;;13.25;64.60
48390;BME280;34643;47.964;7.982;2022-12-28T23:13:46;96404.59;;;13.26;64.50
48390;BME280;34643;47.964;7.982;2022-12-28T23:18:47;96409.78;;;13.26;64.78
48390;BME280;34643;47.964;7.982;2022-12-28T23:24:11;96403.69;;;13.27;64.76
48390;BME280;34643;47.964;7.982;2022-12-28T23:29:30;96376.16;;;13.25;64.89
48390;BME280;34643;47.964;7.982;2022-12-28T23:34:30;96402.94;;;13.25;64.83
48390;BME280;34643;47.964;7.982;2022-12-28T23:39:31;96387.41;;;13.25;64.89
48390;BME280;34643;47.964;7.982;2022-12-28T23:44:31;96392.56;;;13.25;64.89
48390;BME280;34643;47.964;7.982;2022-12-28T23:49:32;96423.69;;;13.25;65.07
48390;BME280;34643;47.964;7.982;2022-12-28T23:54:32;96396.09;;;13.24;64.63
48390;BME280;34643;47.964;7.982;2022-12-28T23:59:32;96392.56;;;13.25;65.02
